sensor_id;sensor_type;location;lat;lon;timestamp;temperature;humidity
64599;SHT31;51008;51.504;11.548;2022-08-19T00:02:32;18.88;96.62
64599;SHT31;51008;51.504;11.548;2022-08-19T00:07:33;18.91;96.56
64599;SHT31;51008;51.504;11.548;2022-08-19T00:12:34;18.89;96.46
64599;SHT31;51008;51.504;11.548;2022-08-19T00:17:35;18.88;96.29
64599;SHT31;51008;51.504;11.548;2022-08-19T00:22:37;18.85;96.49
64599;SHT31;51008;51.504;11.548;2022-08-19T00:27:38;18.84;96.76
64599;SHT31;51008;51.504;11.548;2022-08-19T00:32:39;18.85;96.65
64599;SHT31;51008;51.504;11.548;2022-08-19T00:37:40;18.84;97.04
64599;SHT31;51008;51.504;11.548;2022-08-19T00:42:41;18.83;96.98
64599;SHT31;51008;51.504;11.548;2022-08-19T00:47:43;18.84;96.97
64599;SHT31;51008;51.504;11.548;2022-08-19T00:52:48;18.84;96.93
64599;SHT31;51008;51.504;11.548;2022-08-19T00:57:57;18.81;97.08
64599;SHT31;51008;51.504;11.548;2022-08-19T01:02:59;18.83;97.17
64599;SHT31;51008;51.504;11.548;2022-08-19T01:08:02;18.81;97.21
64599;SHT31;51008;51.504;11.548;2022-08-19T01:13:04;18.81;97.18
64599;SHT31;51008;51.504;11.548;2022-08-19T01:18:08;18.81;97.14
64599;SHT31;51008;51.504;11.548;2022-08-19T01:23:10;18.83;97.21
64599;SHT31;51008;51.504;11.548;2022-08-19T01:28:25;18.85;97.09
64599;SHT31;51008;51.504;11.548;2022-08-19T01:33:26;18.83;97.20
64599;SHT31;51008;51.504;11.548;2022-08-19T01:38:27;18.87;97.34
64599;SHT31;51008;51.504;11.548;2022-08-19T01:43:28;18.84;97.87
64599;SHT31;51008;51.504;11.548;2022-08-19T01:48:34;18.84;97.81
64599;SHT31;51008;51.504;11.548;2022-08-19T01:53:36;18.87;97.85
64599;SHT31;51008;51.504;11.548;2022-08-19T01:58:41;18.87;97.97
64599;SHT31;51008;51.504;11.548;2022-08-19T02:03:45;18.87;97.91
64599;SHT31;51008;51.504;11.548;2022-08-19T02:08:46;18.87;97.98
64599;SHT31;51008;51.504;11.548;2022-08-19T02:13:47;18.87;98.01
64599;SHT31;51008;51.504;11.548;2022-08-19T02:18:48;18.89;98.04
64599;SHT31;51008;51.504;11.548;2022-08-19T02:23:50;18.81;98.25
64599;SHT31;51008;51.504;11.548;2022-08-19T02:28:51;18.79;98.24
64599;SHT31;51008;51.504;11.548;2022-08-19T02:33:52;18.83;98.18
64599;SHT31;51008;51.504;11.548;2022-08-19T02:38:53;18.79;98.23
64599;SHT31;51008;51.504;11.548;2022-08-19T02:43:56;18.79;98.21
64599;SHT31;51008;51.504;11.548;2022-08-19T02:49:00;18.79;98.17
64599;SHT31;51008;51.504;11.548;2022-08-19T02:54:02;18.81;98.14
64599;SHT31;51008;51.504;11.548;2022-08-19T02:59:04;18.81;98.05
64599;SHT31;51008;51.504;11.548;2022-08-19T03:04:06;18.79;98.12
64599;SHT31;51008;51.504;11.548;2022-08-19T03:09:08;18.78;98.07
64599;SHT31;51008;51.504;11.548;2022-08-19T03:14:09;18.79;98.14
64599;SHT31;51008;51.504;11.548;2022-08-19T03:19:11;18.78;98.03
64599;SHT31;51008;51.504;11.548;2022-08-19T03:24:13;18.78;97.92
64599;SHT31;51008;51.504;11.548;2022-08-19T03:29:15;18.77;97.86
64599;SHT31;51008;51.504;11.548;2022-08-19T03:34:20;18.74;97.96
64599;SHT31;51008;51.504;11.548;2022-08-19T03:39:22;18.74;97.73
64599;SHT31;51008;51.504;11.548;2022-08-19T03:44:24;18.72;97.70
64599;SHT31;51008;51.504;11.548;2022-08-19T03:49:28;18.74;97.68
64599;SHT31;51008;51.504;11.548;2022-08-19T03:54:30;18.74;97.64
64599;SHT31;51008;51.504;11.548;2022-08-19T03:59:33;18.74;97.38
64599;SHT31;51008;51.504;11.548;2022-08-19T04:04:35;18.75;97.37
64599;SHT31;51008;51.504;11.548;2022-08-19T04:09:37;18.78;97.27
64599;SHT31;51008;51.504;11.548;2022-08-19T04:14:38;18.75;97.13
64599;SHT31;51008;51.504;11.548;2022-08-19T04:19:39;18.78;96.85
64599;SHT31;51008;51.504;11.548;2022-08-19T04:24:40;18.78;96.90
64599;SHT31;51008;51.504;11.548;2022-08-19T04:29:41;18.83;96.67
64599;SHT31;51008;51.504;11.548;2022-08-19T04:34:42;18.85;96.59
64599;SHT31;51008;51.504;11.548;2022-08-19T04:39:43;18.88;96.22
64599;SHT31;51008;51.504;11.548;2022-08-19T04:44:44;18.91;95.94
64599;SHT31;51008;51.504;11.548;2022-08-19T04:49:45;18.89;95.93
64599;SHT31;51008;51.504;11.548;2022-08-19T04:54:46;18.91;95.99
64599;SHT31;51008;51.504;11.548;2022-08-19T04:59:46;18.89;96.05
64599;SHT31;51008;51.504;11.548;2022-08-19T05:04:47;18.94;95.99
64599;SHT31;51008;51.504;11.548;2022-08-19T05:09:48;18.94;95.85
64599;SHT31;51008;51.504;11.548;2022-08-19T05:14:49;18.94;95.84
64599;SHT31;51008;51.504;11.548;2022-08-19T05:19:50;18.88;95.73
64599;SHT31;51008;51.504;11.548;2022-08-19T05:24:51;18.88;95.64
64599;SHT31;51008;51.504;11.548;2022-08-19T05:29:52;18.91;95.74
64599;SHT31;51008;51.504;11.548;2022-08-19T05:34:53;18.94;95.50
64599;SHT31;51008;51.504;11.548;2022-08-19T05:39:54;18.91;94.85
64599;SHT31;51008;51.504;11.548;2022-08-19T05:44:55;18.94;94.80
64599;SHT31;51008;51.504;11.548;2022-08-19T05:49:56;18.85;94.47
64599;SHT31;51008;51.504;11.548;2022-08-19T05:54:57;18.87;94.49
64599;SHT31;51008;51.504;11.548;2022-08-19T05:59:58;18.84;94.35
64599;SHT31;51008;51.504;11.548;2022-08-19T06:04:59;18.74;94.07
64599;SHT31;51008;51.504;11.548;2022-08-19T06:10:00;18.63;94.05
64599;SHT31;51008;51.504;11.548;2022-08-19T06:15:10;18.58;94.15
64599;SHT31;51008;51.504;11.548;2022-08-19T06:20:13;18.56;93.99
64599;SHT31;51008;51.504;11.548;2022-08-19T06:25:15;18.60;93.40
64599;SHT31;51008;51.504;11.548;2022-08-19T06:30:16;18.67;92.91
64599;SHT31;51008;51.504;11.548;2022-08-19T06:35:17;18.78;92.59
64599;SHT31;51008;51.504;11.548;2022-08-19T06:40:18;18.81;91.17
64599;SHT31;51008;51.504;11.548;2022-08-19T06:45:19;18.87;90.82
64599;SHT31;51008;51.504;11.548;2022-08-19T06:50:24;18.83;90.55
64599;SHT31;51008;51.504;11.548;2022-08-19T06:55:25;18.74;90.56
64599;SHT31;51008;51.504;11.548;2022-08-19T07:00:26;18.75;90.53
64599;SHT31;51008;51.504;11.548;2022-08-19T07:05:27;18.69;90.84
64599;SHT31;51008;51.504;11.548;2022-08-19T07:10:30;18.68;90.69
64599;SHT31;51008;51.504;11.548;2022-08-19T07:15:31;18.63;90.73
64599;SHT31;51008;51.504;11.548;2022-08-19T07:20:32;18.54;90.57
64599;SHT31;51008;51.504;11.548;2022-08-19T07:25:36;18.50;90.64
64599;SHT31;51008;51.504;11.548;2022-08-19T07:30:37;18.56;90.31
64599;SHT31;51008;51.504;11.548;2022-08-19T07:35:38;18.54;90.25
64599;SHT31;51008;51.504;11.548;2022-08-19T07:40:39;18.57;90.38
64599;SHT31;51008;51.504;11.548;2022-08-19T07:45:40;18.63;90.27
64599;SHT31;51008;51.504;11.548;2022-08-19T07:50:41;18.77;90.16
64599;SHT31;51008;51.504;11.548;2022-08-19T07:55:43;18.78;89.12
64599;SHT31;51008;51.504;11.548;2022-08-19T08:00:45;18.77;88.78
64599;SHT31;51008;51.504;11.548;2022-08-19T08:05:46;18.81;89.06
64599;SHT31;51008;51.504;11.548;2022-08-19T08:10:47;18.88;88.46
64599;SHT31;51008;51.504;11.548;2022-08-19T08:15:48;18.85;87.21
64599;SHT31;51008;51.504;11.548;2022-08-19T08:20:49;18.83;87.05
64599;SHT31;51008;51.504;11.548;2022-08-19T08:25:53;18.84;87.34
64599;SHT31;51008;51.504;11.548;2022-08-19T08:30:54;18.96;86.68
64599;SHT31;51008;51.504;11.548;2022-08-19T08:35:56;19.16;87.02
64599;SHT31;51008;51.504;11.548;2022-08-19T08:41:02;19.18;86.33
64599;SHT31;51008;51.504;11.548;2022-08-19T08:46:12;19.16;86.81
64599;SHT31;51008;51.504;11.548;2022-08-19T08:51:22;18.96;86.81
64599;SHT31;51008;51.504;11.548;2022-08-19T08:56:24;18.83;87.71
64599;SHT31;51008;51.504;11.548;2022-08-19T09:01:26;18.72;87.90
64599;SHT31;51008;51.504;11.548;2022-08-19T09:17:31;18.74;87.43
64599;SHT31;51008;51.504;11.548;2022-08-19T09:22:32;18.77;86.90
64599;SHT31;51008;51.504;11.548;2022-08-19T09:27:33;18.98;87.75
64599;SHT31;51008;51.504;11.548;2022-08-19T09:32:34;19.02;86.13
64599;SHT31;51008;51.504;11.548;2022-08-19T09:37:35;19.12;86.32
64599;SHT31;51008;51.504;11.548;2022-08-19T09:42:36;19.19;85.52
64599;SHT31;51008;51.504;11.548;2022-08-19T09:47:38;19.40;85.93
64599;SHT31;51008;51.504;11.548;2022-08-19T09:52:39;19.41;83.96
64599;SHT31;51008;51.504;11.548;2022-08-19T09:57:40;19.38;83.98
64599;SHT31;51008;51.504;11.548;2022-08-19T10:02:41;19.44;82.69
64599;SHT31;51008;51.504;11.548;2022-08-19T10:07:42;19.58;83.63
64599;SHT31;51008;51.504;11.548;2022-08-19T10:12:43;20.13;82.15
64599;SHT31;51008;51.504;11.548;2022-08-19T10:17:44;20.50;81.12
64599;SHT31;51008;51.504;11.548;2022-08-19T10:22:45;20.82;80.49
64599;SHT31;51008;51.504;11.548;2022-08-19T10:27:46;20.84;79.75
64599;SHT31;51008;51.504;11.548;2022-08-19T10:32:47;20.48;79.61
64599;SHT31;51008;51.504;11.548;2022-08-19T10:37:48;20.50;79.23
64599;SHT31;51008;51.504;11.548;2022-08-19T10:42:49;20.60;78.93
64599;SHT31;51008;51.504;11.548;2022-08-19T10:47:50;20.89;79.51
64599;SHT31;51008;51.504;11.548;2022-08-19T10:52:51;21.06;76.85
64599;SHT31;51008;51.504;11.548;2022-08-19T10:57:52;21.16;76.86
64599;SHT31;51008;51.504;11.548;2022-08-19T11:02:53;21.34;76.32
64599;SHT31;51008;51.504;11.548;2022-08-19T11:07:54;21.55;76.03
64599;SHT31;51008;51.504;11.548;2022-08-19T11:12:55;21.73;74.94
64599;SHT31;51008;51.504;11.548;2022-08-19T11:17:55;21.93;73.76
64599;SHT31;51008;51.504;11.548;2022-08-19T11:22:56;22.05;74.32
64599;SHT31;51008;51.504;11.548;2022-08-19T11:27:57;22.40;72.91
64599;SHT31;51008;51.504;11.548;2022-08-19T11:32:58;22.71;71.44
64599;SHT31;51008;51.504;11.548;2022-08-19T11:37:59;22.76;69.83
64599;SHT31;51008;51.504;11.548;2022-08-19T11:43:00;22.73;71.46
64599;SHT31;51008;51.504;11.548;2022-08-19T11:48:01;22.71;71.40
64599;SHT31;51008;51.504;11.548;2022-08-19T11:53:02;22.79;70.79
64599;SHT31;51008;51.504;11.548;2022-08-19T11:58:03;22.72;70.84
64599;SHT31;51008;51.504;11.548;2022-08-19T12:03:04;22.13;71.26
64599;SHT31;51008;51.504;11.548;2022-08-19T12:08:05;21.88;72.43
64599;SHT31;51008;51.504;11.548;2022-08-19T12:13:06;21.71;73.08
64599;SHT31;51008;51.504;11.548;2022-08-19T12:18:08;21.55;73.68
64599;SHT31;51008;51.504;11.548;2022-08-19T12:23:10;21.47;74.66
64599;SHT31;51008;51.504;11.548;2022-08-19T12:28:11;21.48;74.02
64599;SHT31;51008;51.504;11.548;2022-08-19T12:33:11;21.13;74.85
64599;SHT31;51008;51.504;11.548;2022-08-19T12:38:13;20.92;75.27
64599;SHT31;51008;51.504;11.548;2022-08-19T12:43:14;20.78;75.48
64599;SHT31;51008;51.504;11.548;2022-08-19T12:48:15;20.81;76.58
64599;SHT31;51008;51.504;11.548;2022-08-19T12:53:16;20.70;76.66
64599;SHT31;51008;51.504;11.548;2022-08-19T12:58:17;20.53;76.83
64599;SHT31;51008;51.504;11.548;2022-08-19T13:03:18;20.64;77.19
64599;SHT31;51008;51.504;11.548;2022-08-19T13:08:19;20.70;76.81
64599;SHT31;51008;51.504;11.548;2022-08-19T13:13:20;20.79;76.30
64599;SHT31;51008;51.504;11.548;2022-08-19T13:18:21;21.06;75.65
64599;SHT31;51008;51.504;11.548;2022-08-19T13:23:22;21.19;75.03
64599;SHT31;51008;51.504;11.548;2022-08-19T13:28:23;21.26;74.62
64599;SHT31;51008;51.504;11.548;2022-08-19T13:33:24;21.46;74.23
64599;SHT31;51008;51.504;11.548;2022-08-19T13:38:25;21.47;73.46
64599;SHT31;51008;51.504;11.548;2022-08-19T13:43:27;21.53;73.78
64599;SHT31;51008;51.504;11.548;2022-08-19T13:48:27;21.61;73.46
64599;SHT31;51008;51.504;11.548;2022-08-19T13:53:28;21.62;73.08
64599;SHT31;51008;51.504;11.548;2022-08-19T13:58:29;21.81;73.36
64599;SHT31;51008;51.504;11.548;2022-08-19T14:03:31;21.93;73.11
64599;SHT31;51008;51.504;11.548;2022-08-19T14:08:33;21.93;72.14
64599;SHT31;51008;51.504;11.548;2022-08-19T14:13:34;21.95;72.60
64599;SHT31;51008;51.504;11.548;2022-08-19T14:18:35;21.88;72.91
64599;SHT31;51008;51.504;11.548;2022-08-19T14:23:36;21.93;73.43
64599;SHT31;51008;51.504;11.548;2022-08-19T14:28:38;21.95;73.57
64599;SHT31;51008;51.504;11.548;2022-08-19T14:33:40;21.99;73.35
64599;SHT31;51008;51.504;11.548;2022-08-19T14:38:41;21.93;72.96
64599;SHT31;51008;51.504;11.548;2022-08-19T14:43:44;21.98;72.36
64599;SHT31;51008;51.504;11.548;2022-08-19T14:48:45;22.09;72.23
64599;SHT31;51008;51.504;11.548;2022-08-19T14:53:47;22.19;72.21
64599;SHT31;51008;51.504;11.548;2022-08-19T14:58:48;22.29;71.37
64599;SHT31;51008;51.504;11.548;2022-08-19T15:03:49;22.29;72.37
64599;SHT31;51008;51.504;11.548;2022-08-19T15:08:51;22.39;72.45
64599;SHT31;51008;51.504;11.548;2022-08-19T15:13:52;22.40;72.77
64599;SHT31;51008;51.504;11.548;2022-08-19T15:18:56;22.39;71.95
64599;SHT31;51008;51.504;11.548;2022-08-19T15:23:58;22.39;71.62
64599;SHT31;51008;51.504;11.548;2022-08-19T15:29:00;22.36;72.16
64599;SHT31;51008;51.504;11.548;2022-08-19T15:34:02;22.36;71.81
64599;SHT31;51008;51.504;11.548;2022-08-19T15:39:04;22.40;71.95
64599;SHT31;51008;51.504;11.548;2022-08-19T15:44:08;22.44;72.18
64599;SHT31;51008;51.504;11.548;2022-08-19T15:49:11;22.47;72.05
64599;SHT31;51008;51.504;11.548;2022-08-19T15:54:16;22.51;72.09
64599;SHT31;51008;51.504;11.548;2022-08-19T15:59:17;22.51;73.02
64599;SHT31;51008;51.504;11.548;2022-08-19T16:04:18;22.41;73.11
64599;SHT31;51008;51.504;11.548;2022-08-19T16:09:21;22.27;73.03
64599;SHT31;51008;51.504;11.548;2022-08-19T16:14:22;22.30;72.94
64599;SHT31;51008;51.504;11.548;2022-08-19T16:19:24;22.23;73.67
64599;SHT31;51008;51.504;11.548;2022-08-19T16:24:26;22.23;73.42
64599;SHT31;51008;51.504;11.548;2022-08-19T16:29:27;22.21;73.78
64599;SHT31;51008;51.504;11.548;2022-08-19T16:34:29;22.19;74.58
64599;SHT31;51008;51.504;11.548;2022-08-19T16:39:30;22.19;74.50
64599;SHT31;51008;51.504;11.548;2022-08-19T16:44:31;22.08;74.66
64599;SHT31;51008;51.504;11.548;2022-08-19T16:49:32;22.06;75.73
64599;SHT31;51008;51.504;11.548;2022-08-19T16:54:33;22.01;76.32
64599;SHT31;51008;51.504;11.548;2022-08-19T16:59:34;21.93;75.58
64599;SHT31;51008;51.504;11.548;2022-08-19T17:04:35;21.91;75.97
64599;SHT31;51008;51.504;11.548;2022-08-19T17:09:36;21.91;75.96
64599;SHT31;51008;51.504;11.548;2022-08-19T17:14:37;21.93;76.13
64599;SHT31;51008;51.504;11.548;2022-08-19T17:19:40;21.98;76.85
64599;SHT31;51008;51.504;11.548;2022-08-19T17:24:44;21.98;76.42
64599;SHT31;51008;51.504;11.548;2022-08-19T17:29:45;21.96;76.99
64599;SHT31;51008;51.504;11.548;2022-08-19T17:34:46;21.86;78.19
64599;SHT31;51008;51.504;11.548;2022-08-19T17:39:47;21.78;78.29
64599;SHT31;51008;51.504;11.548;2022-08-19T17:44:48;21.71;78.06
64599;SHT31;51008;51.504;11.548;2022-08-19T17:49:49;21.67;79.17
64599;SHT31;51008;51.504;11.548;2022-08-19T17:54:50;21.58;79.57
64599;SHT31;51008;51.504;11.548;2022-08-19T17:59:51;21.48;79.29
64599;SHT31;51008;51.504;11.548;2022-08-19T18:04:52;21.46;79.42
64599;SHT31;51008;51.504;11.548;2022-08-19T18:09:53;21.39;80.50
64599;SHT31;51008;51.504;11.548;2022-08-19T18:14:56;21.29;81.23
64599;SHT31;51008;51.504;11.548;2022-08-19T18:19:58;21.22;82.03
64599;SHT31;51008;51.504;11.548;2022-08-19T18:25:00;21.09;82.56
64599;SHT31;51008;51.504;11.548;2022-08-19T18:30:03;21.02;83.28
64599;SHT31;51008;51.504;11.548;2022-08-19T18:35:08;20.92;83.92
64599;SHT31;51008;51.504;11.548;2022-08-19T18:40:12;20.82;84.04
64599;SHT31;51008;51.504;11.548;2022-08-19T18:45:14;20.72;84.38
64599;SHT31;51008;51.504;11.548;2022-08-19T18:50:15;20.65;84.59
64599;SHT31;51008;51.504;11.548;2022-08-19T18:55:16;20.57;84.16
64599;SHT31;51008;51.504;11.548;2022-08-19T19:00:17;20.47;84.68
64599;SHT31;51008;51.504;11.548;2022-08-19T19:05:18;20.40;84.87
64599;SHT31;51008;51.504;11.548;2022-08-19T19:10:19;20.34;85.13
64599;SHT31;51008;51.504;11.548;2022-08-19T19:15:20;20.26;85.30
64599;SHT31;51008;51.504;11.548;2022-08-19T19:20:21;20.23;85.33
64599;SHT31;51008;51.504;11.548;2022-08-19T19:25:22;20.16;85.23
64599;SHT31;51008;51.504;11.548;2022-08-19T19:30:23;20.15;85.99
64599;SHT31;51008;51.504;11.548;2022-08-19T19:35:24;20.06;85.81
64599;SHT31;51008;51.504;11.548;2022-08-19T19:40:25;20.00;86.02
64599;SHT31;51008;51.504;11.548;2022-08-19T19:45:26;19.95;86.64
64599;SHT31;51008;51.504;11.548;2022-08-19T19:50:27;19.96;86.82
64599;SHT31;51008;51.504;11.548;2022-08-19T19:55:28;19.88;86.66
64599;SHT31;51008;51.504;11.548;2022-08-19T20:00:29;19.78;86.92
64599;SHT31;51008;51.504;11.548;2022-08-19T20:05:30;19.79;87.58
64599;SHT31;51008;51.504;11.548;2022-08-19T20:10:31;19.77;87.30
64599;SHT31;51008;51.504;11.548;2022-08-19T20:15:33;19.68;87.56
64599;SHT31;51008;51.504;11.548;2022-08-19T20:20:34;19.67;87.96
64599;SHT31;51008;51.504;11.548;2022-08-19T20:25:36;19.64;87.83
64599;SHT31;51008;51.504;11.548;2022-08-19T20:30:38;19.61;87.89
64599;SHT31;51008;51.504;11.548;2022-08-19T20:35:39;19.57;87.88
64599;SHT31;51008;51.504;11.548;2022-08-19T20:40:40;19.54;87.88
64599;SHT31;51008;51.504;11.548;2022-08-19T20:45:41;19.53;88.05
64599;SHT31;51008;51.504;11.548;2022-08-19T20:50:42;19.51;88.27
64599;SHT31;51008;51.504;11.548;2022-08-19T20:55:44;19.41;88.71
64599;SHT31;51008;51.504;11.548;2022-08-19T21:00:47;19.44;88.45
64599;SHT31;51008;51.504;11.548;2022-08-19T21:05:48;19.43;88.30
64599;SHT31;51008;51.504;11.548;2022-08-19T21:10:51;19.43;88.53
64599;SHT31;51008;51.504;11.548;2022-08-19T21:15:52;19.41;88.46
64599;SHT31;51008;51.504;11.548;2022-08-19T21:20:54;19.40;88.93
64599;SHT31;51008;51.504;11.548;2022-08-19T21:25:56;19.36;89.55
64599;SHT31;51008;51.504;11.548;2022-08-19T21:30:58;19.31;89.80
64599;SHT31;51008;51.504;11.548;2022-08-19T21:35:59;19.24;90.15
64599;SHT31;51008;51.504;11.548;2022-08-19T21:41:01;19.23;90.23
64599;SHT31;51008;51.504;11.548;2022-08-19T21:46:02;19.11;90.46
64599;SHT31;51008;51.504;11.548;2022-08-19T21:51:03;19.01;90.51
64599;SHT31;51008;51.504;11.548;2022-08-19T21:56:04;18.96;90.69
64599;SHT31;51008;51.504;11.548;2022-08-19T22:01:06;18.95;91.33
64599;SHT31;51008;51.504;11.548;2022-08-19T22:06:07;18.98;91.32
64599;SHT31;51008;51.504;11.548;2022-08-19T22:11:08;18.94;91.14
64599;SHT31;51008;51.504;11.548;2022-08-19T22:16:09;18.84;91.23
64599;SHT31;51008;51.504;11.548;2022-08-19T22:21:10;18.74;91.58
64599;SHT31;51008;51.504;11.548;2022-08-19T22:26:12;18.69;91.88
64599;SHT31;51008;51.504;11.548;2022-08-19T22:31:14;18.72;91.97
64599;SHT31;51008;51.504;11.548;2022-08-19T22:36:15;18.74;92.18
64599;SHT31;51008;51.504;11.548;2022-08-19T22:41:16;18.69;91.99
64599;SHT31;51008;51.504;11.548;2022-08-19T22:46:17;18.61;92.35
64599;SHT31;51008;51.504;11.548;2022-08-19T22:51:18;18.57;92.48
64599;SHT31;51008;51.504;11.548;2022-08-19T22:56:19;18.57;92.55
64599;SHT31;51008;51.504;11.548;2022-08-19T23:01:21;18.58;92.95
64599;SHT31;51008;51.504;11.548;2022-08-19T23:06:22;18.60;92.95
64599;SHT31;51008;51.504;11.548;2022-08-19T23:11:23;18.54;92.75
64599;SHT31;51008;51.504;11.548;2022-08-19T23:16:24;18.53;92.75
64599;SHT31;51008;51.504;11.548;2022-08-19T23:21:25;18.53;92.84
64599;SHT31;51008;51.504;11.548;2022-08-19T23:26:26;18.51;93.32
64599;SHT31;51008;51.504;11.548;2022-08-19T23:31:27;18.47;93.46
64599;SHT31;51008;51.504;11.548;2022-08-19T23:36:28;18.41;93.65
64599;SHT31;51008;51.504;11.548;2022-08-19T23:41:29;18.44;93.58
64599;SHT31;51008;51.504;11.548;2022-08-19T23:46:29;18.40;93.61
64599;SHT31;51008;51.504;11.548;2022-08-19T23:51:30;18.37;93.65
64599;SHT31;51008;51.504;11.548;2022-08-19T23:56:31;18.37;93.64
